Time;durP1;ratioP1;P1;durP2;ratioP2;P2;SDS_P1;SDS_P2;PMS_P1;PMS_P2;Temp;Humidity;BMP_temperature;BMP_pressure;BME280_temperature;BME280_humidity;BME280_pressure;Samples;Min_cycle;Max_cycle;Signal;HPM_P1;HPM_P2
2024/01/17 00:00:15;;;;;;;16.10;11.20;;;;;;;;;;480465;28;1698;-69
2024/01/17 00:00:30;;;;;;;18.38;11.40;;;;;;;;;;481018;28;1395;-69
2024/01/17 00:00:46;;;;;;;18.33;11.55;;;;;;;;;;479669;28;1319;-69
2024/01/17 00:01:01;;;;;;;15.35;11.52;;;;;;;;;;480321;28;1407;-69
2024/01/17 00:01:17;;;;;;;14.30;11.13;;;;;;;;;;479852;28;1086;-69
2024/01/17 00:01:34;;;;;;;16.23;11.05;;;;;;;;;;481322;28;1657;-69
2024/01/17 00:01:50;;;;;;;17.63;11.20;;;;;;;;;;481060;28;1362;-69
2024/01/17 00:02:06;;;;;;;17.23;11.23;;;;;;;;;;481441;28;989;-69
2024/01/17 00:02:21;;;;;;;15.67;11.00;;;;;;;;;;481526;28;1606;-69
2024/01/17 00:02:36;;;;;;;15.15;10.95;;;;;;;;;;481572;28;1146;-69
2024/01/17 00:02:52;;;;;;;15.70;11.00;;;;;;;;;;480785;28;1071;-69
2024/01/17 00:03:07;;;;;;;16.10;10.93;;;;;;;;;;480124;28;937;-70
2024/01/17 00:03:23;;;;;;;15.90;10.80;;;;;;;;;;482736;28;1314;-69
2024/01/17 00:03:38;;;;;;;15.53;10.77;;;;;;;;;;481931;28;1249;-69
2024/01/17 00:03:54;;;;;;;16.00;11.10;;;;;;;;;;481424;28;1637;-69
2024/01/17 00:04:09;;;;;;;16.10;10.93;;;;;;;;;;481705;28;1211;-69
2024/01/17 00:04:25;;;;;;;14.83;10.33;;;;;;;;;;481574;28;1268;-69
2024/01/17 00:04:45;;;;;;;14.25;10.30;;;;;;;;;;481942;28;1366;-69
2024/01/17 00:05:01;;;;;;;16.00;10.88;;;;;;;;;;479481;28;1520;-69
2024/01/17 00:05:16;;;;;;;17.40;10.98;;;;;;;;;;479640;28;1350;-69
2024/01/17 00:05:32;;;;;;;16.30;11.07;;;;;;;;;;478077;28;1474;-69
2024/01/17 00:05:48;;;;;;;15.68;11.20;;;;;;;;;;475916;29;1398;-69
2024/01/17 00:06:04;;;;;;;15.98;10.98;;;;;;;;;;474142;29;1554;-69
2024/01/17 00:06:19;;;;;;;15.18;10.13;;;;;;;;;;473979;29;1423;-69
2024/01/17 00:06:34;;;;;;;14.27;9.70;;;;;;;;;;475319;29;1427;-69
2024/01/17 00:06:50;;;;;;;16.07;10.37;;;;;;;;;;473610;29;1309;-70
2024/01/17 00:07:06;;;;;;;17.63;11.13;;;;;;;;;;476084;29;1141;-69
2024/01/17 00:07:23;;;;;;;17.60;11.20;;;;;;;;;;477217;28;1577;-69
2024/01/17 00:07:39;;;;;;;16.52;10.75;;;;;;;;;;476901;28;1285;-69
2024/01/17 00:07:54;;;;;;;18.00;10.68;;;;;;;;;;478073;28;1312;-69
2024/01/17 00:08:10;;;;;;;17.70;10.88;;;;;;;;;;477549;28;1344;-69
2024/01/17 00:08:25;;;;;;;15.60;10.83;;;;;;;;;;477919;28;1345;-69
2024/01/17 00:08:41;;;;;;;15.50;10.80;;;;;;;;;;477967;28;1327;-69
2024/01/17 00:08:56;;;;;;;15.13;10.70;;;;;;;;;;477870;28;1316;-69
2024/01/17 00:09:12;;;;;;;15.35;10.63;;;;;;;;;;477727;28;1347;-69
2024/01/17 00:09:27;;;;;;;15.43;10.30;;;;;;;;;;477587;28;1346;-69
2024/01/17 00:09:43;;;;;;;14.43;10.07;;;;;;;;;;479259;28;1367;-69
2024/01/17 00:09:59;;;;;;;13.85;9.93;;;;;;;;;;479561;28;1798;-69
2024/01/17 00:10:16;;;;;;;13.70;9.73;;;;;;;;;;479185;28;1453;-69
2024/01/17 00:10:31;;;;;;;17.05;10.48;;;;;;;;;;479111;28;1524;-71
2024/01/17 00:10:47;;;;;;;17.95;11.00;;;;;;;;;;478940;28;1618;-69
2024/01/17 00:11:02;;;;;;;15.00;10.30;;;;;;;;;;480387;28;1711;-70
2024/01/17 00:11:18;;;;;;;15.18;10.00;;;;;;;;;;479179;28;1956;-69
2024/01/17 00:11:33;;;;;;;15.57;10.20;;;;;;;;;;480608;28;1064;-69
2024/01/17 00:11:50;;;;;;;14.48;9.82;;;;;;;;;;480195;28;1407;-69
2024/01/17 00:12:06;;;;;;;14.18;9.98;;;;;;;;;;477256;28;1292;-69
2024/01/17 00:12:21;;;;;;;15.27;10.10;;;;;;;;;;476945;28;1747;-70
2024/01/17 00:12:36;;;;;;;16.00;9.90;;;;;;;;;;477789;28;1084;-69
2024/01/17 00:12:52;;;;;;;14.70;9.60;;;;;;;;;;477502;28;1268;-69
2024/01/17 00:13:08;;;;;;;14.40;9.80;;;;;;;;;;475834;29;1356;-69
2024/01/17 00:13:23;;;;;;;15.50;10.23;;;;;;;;;;474001;29;1372;-69
2024/01/17 00:13:38;;;;;;;14.70;9.82;;;;;;;;;;476337;28;974;-69
2024/01/17 00:13:54;;;;;;;14.80;9.90;;;;;;;;;;477692;28;1428;-69
2024/01/17 00:14:10;;;;;;;16.17;10.43;;;;;;;;;;479321;28;1766;-69
2024/01/17 00:14:25;;;;;;;16.05;10.30;;;;;;;;;;479569;28;1406;-69
2024/01/17 00:14:41;;;;;;;16.03;10.20;;;;;;;;;;479282;28;1254;-69
2024/01/17 00:14:56;;;;;;;14.30;9.90;;;;;;;;;;479201;28;1070;-69
2024/01/17 00:15:12;;;;;;;13.20;9.60;;;;;;;;;;479749;28;1403;-69
2024/01/17 00:15:27;;;;;;;14.13;9.90;;;;;;;;;;482099;28;1092;-69
2024/01/17 00:15:43;;;;;;;14.37;10.10;;;;;;;;;;481962;28;1398;-69
2024/01/17 00:15:58;;;;;;;15.65;10.23;;;;;;;;;;482185;28;1110;-70
2024/01/17 00:16:21;;;;;;;15.83;10.30;;;;;;;;;;482112;28;1602;-69
2024/01/17 00:16:37;;;;;;;15.48;10.43;;;;;;;;;;479658;28;1372;-69
2024/01/17 00:16:54;;;;;;;15.43;10.43;;;;;;;;;;479416;28;1260;-69
2024/01/17 00:17:10;;;;;;;14.23;10.10;;;;;;;;;;478057;28;1232;-69
2024/01/17 00:17:25;;;;;;;15.25;10.20;;;;;;;;;;477815;28;1159;-69
2024/01/17 00:17:40;;;;;;;16.87;10.33;;;;;;;;;;477032;28;1127;-69
2024/01/17 00:17:56;;;;;;;15.85;10.10;;;;;;;;;;476912;28;1275;-69
2024/01/17 00:18:11;;;;;;;14.20;10.20;;;;;;;;;;476351;28;1078;-69
2024/01/17 00:18:27;;;;;;;14.50;10.52;;;;;;;;;;475535;28;1074;-69
2024/01/17 00:18:42;;;;;;;15.07;10.53;;;;;;;;;;478781;28;917;-69
2024/01/17 00:18:58;;;;;;;14.45;10.30;;;;;;;;;;476913;28;1537;-69
2024/01/17 00:19:13;;;;;;;14.07;10.17;;;;;;;;;;478731;28;988;-70
2024/01/17 00:19:31;;;;;;;14.75;9.90;;;;;;;;;;477567;28;1435;-69
2024/01/17 00:19:46;;;;;;;15.55;10.00;;;;;;;;;;477536;28;1266;-69
2024/01/17 00:20:02;;;;;;;15.20;10.07;;;;;;;;;;477902;28;917;-69
2024/01/17 00:20:18;;;;;;;15.23;10.23;;;;;;;;;;478077;28;918;-69
2024/01/17 00:20:33;;;;;;;16.27;10.43;;;;;;;;;;476906;28;1414;-69
2024/01/17 00:20:48;;;;;;;15.90;10.02;;;;;;;;;;477529;28;1114;-69
2024/01/17 00:21:04;;;;;;;14.77;10.03;;;;;;;;;;477375;28;1264;-69
2024/01/17 00:21:19;;;;;;;13.93;10.07;;;;;;;;;;477147;28;1234;-69
2024/01/17 00:21:35;;;;;;;13.30;9.73;;;;;;;;;;476424;28;1175;-69
2024/01/17 00:21:51;;;;;;;13.48;9.93;;;;;;;;;;478580;28;1342;-69
2024/01/17 00:22:06;;;;;;;14.77;10.30;;;;;;;;;;477626;28;1323;-69
2024/01/17 00:22:21;;;;;;;15.70;10.40;;;;;;;;;;474949;29;1344;-69
2024/01/17 00:22:37;;;;;;;14.63;10.10;;;;;;;;;;473728;29;1520;-69
2024/01/17 00:22:54;;;;;;;14.18;9.60;;;;;;;;;;471105;29;1342;-69
2024/01/17 00:23:09;;;;;;;15.65;9.95;;;;;;;;;;471875;29;1653;-69
2024/01/17 00:23:24;;;;;;;14.63;10.40;;;;;;;;;;474043;29;1365;-69
2024/01/17 00:23:40;;;;;;;14.63;10.30;;;;;;;;;;471444;29;1547;-69
2024/01/17 00:23:55;;;;;;;16.25;9.98;;;;;;;;;;472428;29;1313;-70
2024/01/17 00:24:11;;;;;;;15.27;9.97;;;;;;;;;;475640;29;1365;-69
2024/01/17 00:24:27;;;;;;;14.60;10.02;;;;;;;;;;474923;29;1593;-69
2024/01/17 00:24:43;;;;;;;14.23;9.60;;;;;;;;;;474747;29;1309;-69
2024/01/17 00:24:58;;;;;;;14.00;9.80;;;;;;;;;;475867;28;1314;-69
2024/01/17 00:25:13;;;;;;;13.97;9.90;;;;;;;;;;477084;28;1411;-69
2024/01/17 00:25:29;;;;;;;12.73;9.32;;;;;;;;;;477969;28;1403;-69
2024/01/17 00:25:45;;;;;;;13.73;9.47;;;;;;;;;;478836;28;1091;-69
2024/01/17 00:26:00;;;;;;;15.10;9.88;;;;;;;;;;479978;28;958;-69
2024/01/17 00:26:16;;;;;;;14.17;9.80;;;;;;;;;;477792;28;1286;-70
2024/01/17 00:26:31;;;;;;;15.20;10.05;;;;;;;;;;477341;28;886;-69
2024/01/17 00:26:47;;;;;;;16.40;10.23;;;;;;;;;;479356;28;1243;-69
2024/01/17 00:27:04;;;;;;;15.20;9.93;;;;;;;;;;479451;28;1421;-69
2024/01/17 00:27:24;;;;;;;15.15;9.85;;;;;;;;;;478563;28;1459;-69
2024/01/17 00:27:39;;;;;;;15.70;9.82;;;;;;;;;;478886;28;1020;-69
2024/01/17 00:27:54;;;;;;;15.07;10.00;;;;;;;;;;480377;28;1344;-69
2024/01/17 00:28:10;;;;;;;15.90;9.98;;;;;;;;;;481019;28;1614;-69
2024/01/17 00:28:25;;;;;;;15.40;9.53;;;;;;;;;;480484;28;1067;-70
2024/01/17 00:28:41;;;;;;;14.18;9.18;;;;;;;;;;479041;28;1012;-70
2024/01/17 00:28:56;;;;;;;13.93;9.17;;;;;;;;;;478891;28;1597;-69
2024/01/17 00:29:12;;;;;;;13.73;9.27;;;;;;;;;;478313;28;1032;-69
2024/01/17 00:29:27;;;;;;;12.73;9.20;;;;;;;;;;479489;28;1386;-70
2024/01/17 00:29:43;;;;;;;12.88;9.07;;;;;;;;;;478540;28;1091;-69
2024/01/17 00:29:58;;;;;;;13.27;8.80;;;;;;;;;;479451;28;1521;-69
2024/01/17 00:30:14;;;;;;;13.07;8.57;;;;;;;;;;479181;28;1181;-70
2024/01/17 00:30:29;;;;;;;13.75;8.80;;;;;;;;;;479079;28;1352;-69
2024/01/17 00:30:45;;;;;;;14.53;9.10;;;;;;;;;;481640;28;1393;-69
2024/01/17 00:31:00;;;;;;;14.77;9.67;;;;;;;;;;478640;28;1327;-69
2024/01/17 00:31:16;;;;;;;14.13;9.87;;;;;;;;;;478954;28;1946;-69
2024/01/17 00:31:32;;;;;;;15.48;9.63;;;;;;;;;;480072;28;1310;-69
2024/01/17 00:31:48;;;;;;;16.55;9.88;;;;;;;;;;480227;28;1381;-69
2024/01/17 00:32:03;;;;;;;15.77;10.25;;;;;;;;;;479969;28;1347;-70
2024/01/17 00:32:19;;;;;;;15.67;10.00;;;;;;;;;;479372;28;1494;-69
2024/01/17 00:32:34;;;;;;;16.33;9.82;;;;;;;;;;481767;28;1346;-69
2024/01/17 00:32:50;;;;;;;16.80;9.73;;;;;;;;;;481261;28;1175;-69
2024/01/17 00:33:05;;;;;;;15.52;9.60;;;;;;;;;;479309;28;1716;-69
2024/01/17 00:33:21;;;;;;;13.90;9.60;;;;;;;;;;478988;28;1721;-69
2024/01/17 00:33:37;;;;;;;12.93;9.25;;;;;;;;;;478896;28;1463;-69
2024/01/17 00:33:52;;;;;;;12.25;8.57;;;;;;;;;;480061;28;1026;-69
2024/01/17 00:34:08;;;;;;;12.37;8.67;;;;;;;;;;479386;28;1379;-69
2024/01/17 00:34:23;;;;;;;12.85;9.07;;;;;;;;;;477254;28;1285;-69
2024/01/17 00:34:38;;;;;;;13.67;9.00;;;;;;;;;;478013;28;1301;-69
2024/01/17 00:34:54;;;;;;;15.63;9.57;;;;;;;;;;479215;28;1307;-69
2024/01/17 00:35:10;;;;;;;15.00;9.63;;;;;;;;;;479826;28;1349;-69
2024/01/17 00:35:25;;;;;;;13.63;9.20;;;;;;;;;;477721;28;1351;-69
2024/01/17 00:35:41;;;;;;;15.73;9.30;;;;;;;;;;476553;28;1492;-69
2024/01/17 00:35:56;;;;;;;15.98;9.43;;;;;;;;;;477200;28;1400;-69
2024/01/17 00:36:12;;;;;;;15.27;9.50;;;;;;;;;;476701;28;1414;-69
2024/01/17 00:36:27;;;;;;;13.27;9.13;;;;;;;;;;478643;28;1571;-69
2024/01/17 00:36:43;;;;;;;12.43;8.80;;;;;;;;;;478515;28;1394;-69
2024/01/17 00:36:59;;;;;;;15.00;9.23;;;;;;;;;;478624;28;1311;-69
2024/01/17 00:37:14;;;;;;;14.98;9.40;;;;;;;;;;478701;28;1364;-69
2024/01/17 00:37:29;;;;;;;13.20;9.20;;;;;;;;;;478547;28;1351;-69
2024/01/17 00:37:45;;;;;;;13.53;9.03;;;;;;;;;;478174;28;1323;-70
2024/01/17 00:38:01;;;;;;;15.13;9.20;;;;;;;;;;477666;28;1399;-70
2024/01/17 00:38:16;;;;;;;14.83;9.30;;;;;;;;;;477869;28;999;-69
2024/01/17 00:38:32;;;;;;;14.10;8.90;;;;;;;;;;480459;28;1373;-70
2024/01/17 00:38:47;;;;;;;14.13;9.10;;;;;;;;;;479700;28;1364;-69
2024/01/17 00:39:02;;;;;;;14.65;9.50;;;;;;;;;;479870;28;1856;-69
2024/01/17 00:39:18;;;;;;;14.23;9.37;;;;;;;;;;477334;28;1317;-69
2024/01/17 00:39:34;;;;;;;13.45;9.30;;;;;;;;;;476844;28;1075;-69
2024/01/17 00:39:50;;;;;;;15.07;9.47;;;;;;;;;;477870;28;1425;-69
2024/01/17 00:40:06;;;;;;;14.32;9.13;;;;;;;;;;477824;28;927;-69
2024/01/17 00:40:21;;;;;;;13.48;9.10;;;;;;;;;;478198;28;930;-69
2024/01/17 00:40:37;;;;;;;14.20;9.30;;;;;;;;;;478139;28;906;-69
2024/01/17 00:40:52;;;;;;;13.63;9.18;;;;;;;;;;477509;28;1649;-69
2024/01/17 00:41:08;;;;;;;13.13;9.30;;;;;;;;;;477930;28;1458;-69
2024/01/17 00:41:24;;;;;;;12.57;9.15;;;;;;;;;;478734;28;1453;-70
2024/01/17 00:41:40;;;;;;;12.65;8.90;;;;;;;;;;480289;28;1366;-69
2024/01/17 00:41:55;;;;;;;12.68;8.93;;;;;;;;;;480376;28;1322;-69
2024/01/17 00:42:11;;;;;;;12.90;8.97;;;;;;;;;;481242;28;1366;-71
2024/01/17 00:42:27;;;;;;;12.63;8.85;;;;;;;;;;480209;28;1172;-69
2024/01/17 00:42:43;;;;;;;13.52;8.88;;;;;;;;;;480243;28;1665;-69
2024/01/17 00:42:58;;;;;;;15.90;9.18;;;;;;;;;;480804;28;1777;-69
2024/01/17 00:43:14;;;;;;;14.77;8.80;;;;;;;;;;479055;28;1721;-69
2024/01/17 00:43:29;;;;;;;13.38;8.55;;;;;;;;;;479367;28;1447;-69
2024/01/17 00:43:45;;;;;;;13.03;8.60;;;;;;;;;;480116;28;1344;-70
2024/01/17 00:44:02;;;;;;;12.73;8.60;;;;;;;;;;480166;28;1302;-69
2024/01/17 00:44:21;;;;;;;13.25;8.30;;;;;;;;;;477957;28;1356;-69
2024/01/17 00:44:39;;;;;;;13.35;8.40;;;;;;;;;;477797;28;1390;-69
2024/01/17 00:44:54;;;;;;;12.75;8.48;;;;;;;;;;478088;28;1429;-69
2024/01/17 00:45:10;;;;;;;12.57;8.65;;;;;;;;;;478514;28;1584;-69
2024/01/17 00:45:25;;;;;;;12.37;8.47;;;;;;;;;;478677;28;1399;-69
2024/01/17 00:45:41;;;;;;;12.30;8.50;;;;;;;;;;479393;28;1599;-69
2024/01/17 00:45:56;;;;;;;12.40;8.47;;;;;;;;;;479398;28;1004;-69
2024/01/17 00:46:12;;;;;;;12.10;8.13;;;;;;;;;;478494;28;1083;-69
2024/01/17 00:46:27;;;;;;;12.83;8.27;;;;;;;;;;478919;28;1513;-70
2024/01/17 00:46:43;;;;;;;12.65;8.27;;;;;;;;;;478311;28;1307;-69
2024/01/17 00:46:58;;;;;;;12.53;8.10;;;;;;;;;;478943;28;1386;-69
2024/01/17 00:47:14;;;;;;;12.77;8.25;;;;;;;;;;479837;28;987;-69
2024/01/17 00:47:30;;;;;;;12.13;8.23;;;;;;;;;;479998;28;1635;-69
2024/01/17 00:47:46;;;;;;;12.55;8.43;;;;;;;;;;480158;28;1410;-69
2024/01/17 00:48:03;;;;;;;13.40;8.55;;;;;;;;;;480132;28;1498;-69
2024/01/17 00:48:18;;;;;;;12.75;8.35;;;;;;;;;;480877;28;1431;-69
2024/01/17 00:48:34;;;;;;;12.38;8.32;;;;;;;;;;481205;28;1066;-69
2024/01/17 00:48:49;;;;;;;11.43;8.30;;;;;;;;;;479629;28;1306;-69
2024/01/17 00:49:05;;;;;;;11.25;8.30;;;;;;;;;;479338;28;1590;-69
2024/01/17 00:49:20;;;;;;;12.23;8.40;;;;;;;;;;479168;28;1398;-69
2024/01/17 00:49:39;;;;;;;12.25;8.40;;;;;;;;;;479216;28;1013;-69
2024/01/17 00:49:54;;;;;;;14.18;8.48;;;;;;;;;;478931;28;1400;-69
2024/01/17 00:50:10;;;;;;;14.87;8.47;;;;;;;;;;479075;28;1756;-70
2024/01/17 00:50:25;;;;;;;13.05;8.38;;;;;;;;;;478945;28;1447;-69
2024/01/17 00:50:41;;;;;;;11.90;8.07;;;;;;;;;;480763;28;1556;-69
2024/01/17 00:50:57;;;;;;;12.80;8.45;;;;;;;;;;481138;28;1059;-70
2024/01/17 00:51:24;;;;;;;12.87;8.40;;;;;;;;;;481008;28;2009;-68
2024/01/17 00:51:39;;;;;;;13.13;8.40;;;;;;;;;;480203;28;1074;-70
2024/01/17 00:51:55;;;;;;;12.83;8.27;;;;;;;;;;480326;28;1236;-69
2024/01/17 00:52:10;;;;;;;13.40;8.48;;;;;;;;;;480178;28;1084;-69
2024/01/17 00:52:26;;;;;;;13.73;8.63;;;;;;;;;;480242;28;1169;-69
2024/01/17 00:52:41;;;;;;;14.20;8.43;;;;;;;;;;480341;28;983;-69
2024/01/17 00:52:57;;;;;;;12.93;8.40;;;;;;;;;;480073;28;1345;-69
2024/01/17 00:53:12;;;;;;;12.90;8.73;;;;;;;;;;478071;28;1010;-69
2024/01/17 00:53:29;;;;;;;13.97;9.00;;;;;;;;;;478255;28;1467;-69
2024/01/17 00:53:44;;;;;;;13.32;9.07;;;;;;;;;;479744;28;1363;-69
2024/01/17 00:54:00;;;;;;;13.33;9.13;;;;;;;;;;480081;28;1042;-69
2024/01/17 00:54:15;;;;;;;13.65;8.90;;;;;;;;;;480414;28;1181;-69
2024/01/17 00:54:30;;;;;;;14.17;9.10;;;;;;;;;;480264;28;1319;-69
2024/01/17 00:54:46;;;;;;;13.88;9.20;;;;;;;;;;480009;28;1161;-69
2024/01/17 00:55:01;;;;;;;13.70;8.90;;;;;;;;;;481324;28;1121;-70
2024/01/17 00:55:17;;;;;;;13.65;8.77;;;;;;;;;;482306;28;1416;-69
2024/01/17 00:55:32;;;;;;;12.73;8.70;;;;;;;;;;481408;28;1057;-69
2024/01/17 00:55:48;;;;;;;13.45;9.02;;;;;;;;;;480111;28;1270;-70
2024/01/17 00:56:03;;;;;;;14.87;9.30;;;;;;;;;;479601;28;1266;-69
2024/01/17 00:56:19;;;;;;;14.48;9.02;;;;;;;;;;479771;28;1200;-69
2024/01/17 00:56:35;;;;;;;13.33;8.93;;;;;;;;;;479451;28;1073;-69
2024/01/17 00:56:51;;;;;;;12.70;8.60;;;;;;;;;;480003;28;1050;-69
2024/01/17 00:57:06;;;;;;;12.23;8.47;;;;;;;;;;480351;28;1053;-69
2024/01/17 00:57:22;;;;;;;13.32;8.90;;;;;;;;;;479829;28;1230;-69
2024/01/17 00:57:37;;;;;;;13.53;9.00;;;;;;;;;;480440;28;896;-70
2024/01/17 00:57:53;;;;;;;12.73;8.57;;;;;;;;;;482492;28;1041;-69
2024/01/17 00:58:08;;;;;;;14.13;8.70;;;;;;;;;;481715;28;946;-69
2024/01/17 00:58:24;;;;;;;14.30;8.50;;;;;;;;;;482193;28;1046;-69
2024/01/17 00:58:41;;;;;;;14.37;8.70;;;;;;;;;;482025;28;1183;-69
2024/01/17 00:58:56;;;;;;;15.13;9.95;;;;;;;;;;480133;28;1399;-69
2024/01/17 00:59:12;;;;;;;15.40;10.07;;;;;;;;;;479296;28;1154;-69
2024/01/17 00:59:27;;;;;;;14.20;9.47;;;;;;;;;;479724;28;1046;-69
2024/01/17 00:59:43;;;;;;;13.67;8.97;;;;;;;;;;481125;28;1268;-70
2024/01/17 00:59:58;;;;;;;13.53;8.77;;;;;;;;;;481028;28;1102;-69
2024/01/17 01:00:14;;;;;;;14.68;8.60;;;;;;;;;;479152;28;1212;-69
2024/01/17 01:00:29;;;;;;;15.88;8.63;;;;;;;;;;479490;28;1100;-69
2024/01/17 01:00:45;;;;;;;13.43;8.40;;;;;;;;;;479767;28;962;-69
2024/01/17 01:01:01;;;;;;;12.07;8.25;;;;;;;;;;480027;28;1292;-69
2024/01/17 01:01:16;;;;;;;12.60;8.52;;;;;;;;;;479079;28;1316;-70
2024/01/17 01:01:32;;;;;;;12.43;8.67;;;;;;;;;;478844;28;1091;-69
2024/01/17 01:01:47;;;;;;;12.13;8.85;;;;;;;;;;479102;28;1500;-69
2024/01/17 01:02:03;;;;;;;15.07;8.93;;;;;;;;;;479032;28;966;-69
2024/01/17 01:02:18;;;;;;;15.38;8.82;;;;;;;;;;479274;28;1287;-69
2024/01/17 01:02:34;;;;;;;12.60;8.80;;;;;;;;;;479211;28;951;-70
2024/01/17 01:02:51;;;;;;;12.10;8.80;;;;;;;;;;477376;28;1354;-69
2024/01/17 01:03:07;;;;;;;12.43;8.90;;;;;;;;;;478454;28;1272;-69
2024/01/17 01:03:22;;;;;;;12.57;8.90;;;;;;;;;;477543;28;1320;-69
2024/01/17 01:03:37;;;;;;;12.93;8.80;;;;;;;;;;479539;28;937;-70
2024/01/17 01:03:53;;;;;;;14.02;9.05;;;;;;;;;;479076;28;995;-70
2024/01/17 01:04:08;;;;;;;13.17;9.00;;;;;;;;;;478274;28;1137;-69
2024/01/17 01:04:24;;;;;;;12.85;8.80;;;;;;;;;;477340;28;1336;-69
2024/01/17 01:04:39;;;;;;;14.40;8.70;;;;;;;;;;477392;28;1299;-69
2024/01/17 01:04:55;;;;;;;14.85;8.23;;;;;;;;;;478319;28;917;-69
2024/01/17 01:05:14;;;;;;;13.17;8.30;;;;;;;;;;477308;28;1150;-69
2024/01/17 01:05:30;;;;;;;12.55;8.85;;;;;;;;;;477259;28;1038;-69
2024/01/17 01:05:46;;;;;;;13.67;9.00;;;;;;;;;;477528;28;1303;-69
2024/01/17 01:06:01;;;;;;;14.02;9.07;;;;;;;;;;477833;28;970;-69
2024/01/17 01:06:17;;;;;;;13.82;9.00;;;;;;;;;;478454;28;1044;-69
2024/01/17 01:06:32;;;;;;;14.07;9.07;;;;;;;;;;481499;28;942;-69
2024/01/17 01:06:48;;;;;;;14.07;9.43;;;;;;;;;;480116;28;1573;-69
2024/01/17 01:07:03;;;;;;;13.53;9.87;;;;;;;;;;480256;28;1039;-69
2024/01/17 01:07:19;;;;;;;14.02;9.98;;;;;;;;;;479812;28;1036;-69
2024/01/17 01:07:34;;;;;;;14.77;9.80;;;;;;;;;;480393;28;995;-69
2024/01/17 01:07:51;;;;;;;13.82;9.43;;;;;;;;;;480000;28;960;-70
2024/01/17 01:08:06;;;;;;;13.80;9.38;;;;;;;;;;479123;28;1277;-69
2024/01/17 01:08:21;;;;;;;14.45;9.68;;;;;;;;;;478650;28;1219;-69
2024/01/17 01:08:37;;;;;;;15.03;9.80;;;;;;;;;;479354;28;1034;-69
2024/01/17 01:09:00;;;;;;;14.85;9.77;;;;;;;;;;478594;28;1368;-69
2024/01/17 01:09:16;;;;;;;14.65;9.55;;;;;;;;;;478320;28;1236;-70
2024/01/17 01:09:31;;;;;;;13.80;9.52;;;;;;;;;;478580;28;1243;-69
2024/01/17 01:09:47;;;;;;;14.97;9.90;;;;;;;;;;478516;28;1226;-70
2024/01/17 01:10:03;;;;;;;16.30;10.07;;;;;;;;;;480392;28;1215;-70
2024/01/17 01:10:18;;;;;;;15.23;9.73;;;;;;;;;;480555;28;1284;-70
2024/01/17 01:10:34;;;;;;;15.27;9.37;;;;;;;;;;479199;28;1090;-69
2024/01/17 01:10:49;;;;;;;15.90;9.50;;;;;;;;;;478102;28;1231;-69
2024/01/17 01:11:05;;;;;;;15.90;9.87;;;;;;;;;;477902;28;1242;-70
2024/01/17 01:11:21;;;;;;;16.45;10.38;;;;;;;;;;477271;28;1956;-69
2024/01/17 01:11:36;;;;;;;15.02;10.40;;;;;;;;;;477650;28;1048;-69
2024/01/17 01:11:52;;;;;;;14.13;10.20;;;;;;;;;;476446;28;1488;-69
2024/01/17 01:12:07;;;;;;;14.32;10.13;;;;;;;;;;478133;28;1188;-69
2024/01/17 01:12:23;;;;;;;15.37;9.90;;;;;;;;;;478848;28;1184;-69
2024/01/17 01:12:38;;;;;;;15.38;9.55;;;;;;;;;;479073;28;960;-70
2024/01/17 01:12:53;;;;;;;14.47;9.20;;;;;;;;;;478268;28;1319;-69
2024/01/17 01:13:09;;;;;;;15.05;9.32;;;;;;;;;;478771;28;1231;-69
2024/01/17 01:13:24;;;;;;;14.53;9.60;;;;;;;;;;477828;28;1150;-69
2024/01/17 01:13:40;;;;;;;14.10;9.57;;;;;;;;;;478618;28;1340;-70
2024/01/17 01:13:55;;;;;;;14.20;9.43;;;;;;;;;;479945;28;1309;-69
2024/01/17 01:14:11;;;;;;;14.13;9.53;;;;;;;;;;480147;28;1003;-70
2024/01/17 01:14:26;;;;;;;14.15;9.90;;;;;;;;;;479327;28;1316;-69
2024/01/17 01:14:41;;;;;;;14.63;10.00;;;;;;;;;;478343;28;1181;-69
2024/01/17 01:14:57;;;;;;;14.50;10.02;;;;;;;;;;477558;28;1129;-69
2024/01/17 01:15:12;;;;;;;14.87;10.03;;;;;;;;;;477841;28;1019;-69
2024/01/17 01:15:28;;;;;;;15.77;9.75;;;;;;;;;;476912;28;898;-69
2024/01/17 01:15:44;;;;;;;14.60;9.40;;;;;;;;;;476998;28;1283;-69
2024/01/17 01:15:59;;;;;;;13.33;9.57;;;;;;;;;;477230;28;1308;-69
2024/01/17 01:16:14;;;;;;;14.17;10.10;;;;;;;;;;477020;28;914;-69
2024/01/17 01:16:30;;;;;;;14.95;9.90;;;;;;;;;;477131;28;1013;-69
2024/01/17 01:16:45;;;;;;;14.83;9.60;;;;;;;;;;477773;28;1340;-69
2024/01/17 01:17:01;;;;;;;13.98;9.68;;;;;;;;;;478526;28;981;-69
2024/01/17 01:17:16;;;;;;;13.47;9.80;;;;;;;;;;478326;28;947;-69
2024/01/17 01:17:32;;;;;;;13.13;9.60;;;;;;;;;;478690;28;1022;-69
2024/01/17 01:17:47;;;;;;;15.17;9.50;;;;;;;;;;478327;28;1295;-69
2024/01/17 01:18:03;;;;;;;16.17;9.63;;;;;;;;;;478206;28;961;-69
2024/01/17 01:18:18;;;;;;;15.73;9.68;;;;;;;;;;477127;28;1207;-69
2024/01/17 01:18:34;;;;;;;16.50;10.23;;;;;;;;;;478547;28;1010;-69
2024/01/17 01:18:50;;;;;;;15.85;10.02;;;;;;;;;;480322;28;953;-71
2024/01/17 01:19:06;;;;;;;15.52;9.55;;;;;;;;;;480270;28;1129;-69
2024/01/17 01:19:21;;;;;;;15.97;10.17;;;;;;;;;;480077;28;1154;-69
2024/01/17 01:19:36;;;;;;;16.00;10.60;;;;;;;;;;480422;28;1252;-69
2024/01/17 01:19:52;;;;;;;16.03;10.20;;;;;;;;;;481732;28;1079;-69
2024/01/17 01:20:08;;;;;;;15.68;9.70;;;;;;;;;;481640;28;1067;-69
2024/01/17 01:20:23;;;;;;;15.20;9.60;;;;;;;;;;480799;28;1260;-69
2024/01/17 01:20:39;;;;;;;15.53;9.70;;;;;;;;;;479099;28;1220;-70
2024/01/17 01:20:54;;;;;;;15.73;9.70;;;;;;;;;;478728;28;957;-69
2024/01/17 01:21:10;;;;;;;16.33;9.93;;;;;;;;;;478385;28;929;-70
2024/01/17 01:21:25;;;;;;;16.13;10.32;;;;;;;;;;477732;28;907;-70
2024/01/17 01:21:42;;;;;;;16.07;10.30;;;;;;;;;;478316;28;1324;-69
2024/01/17 01:21:57;;;;;;;15.32;9.93;;;;;;;;;;478062;28;1074;-69
2024/01/17 01:22:13;;;;;;;14.98;9.93;;;;;;;;;;477986;28;956;-69
2024/01/17 01:22:28;;;;;;;15.43;10.13;;;;;;;;;;477584;28;1127;-69
2024/01/17 01:22:44;;;;;;;15.03;10.07;;;;;;;;;;478644;28;1398;-70
2024/01/17 01:22:59;;;;;;;14.45;9.88;;;;;;;;;;478837;28;1073;-70
2024/01/17 01:23:15;;;;;;;15.90;10.10;;;;;;;;;;477731;28;1197;-69
2024/01/17 01:23:30;;;;;;;16.25;9.90;;;;;;;;;;479351;28;1294;-69
2024/01/17 01:23:46;;;;;;;14.03;9.27;;;;;;;;;;478944;28;1108;-69
2024/01/17 01:24:02;;;;;;;13.73;9.70;;;;;;;;;;478996;28;1668;-69
2024/01/17 01:24:17;;;;;;;13.80;9.82;;;;;;;;;;478940;28;1362;-69
2024/01/17 01:24:32;;;;;;;14.00;9.50;;;;;;;;;;474748;28;1198;-69
2024/01/17 01:24:48;;;;;;;14.77;9.75;;;;;;;;;;477201;28;1027;-69
2024/01/17 01:25:04;;;;;;;15.27;9.40;;;;;;;;;;477270;28;986;-69
2024/01/17 01:25:20;;;;;;;14.65;9.15;;;;;;;;;;477583;28;1073;-69
2024/01/17 01:25:35;;;;;;;14.77;9.43;;;;;;;;;;477789;28;916;-70
2024/01/17 01:25:51;;;;;;;15.25;9.40;;;;;;;;;;479077;28;1689;-69
2024/01/17 01:26:06;;;;;;;12.73;8.90;;;;;;;;;;480255;28;1350;-69
2024/01/17 01:26:21;;;;;;;12.77;9.10;;;;;;;;;;478414;28;1235;-69
2024/01/17 01:26:37;;;;;;;15.17;9.43;;;;;;;;;;479623;28;856;-70
2024/01/17 01:26:52;;;;;;;15.00;9.52;;;;;;;;;;479016;28;1294;-69
2024/01/17 01:27:08;;;;;;;13.43;9.23;;;;;;;;;;478745;28;1396;-69
2024/01/17 01:27:23;;;;;;;12.47;8.90;;;;;;;;;;478926;28;1143;-69
2024/01/17 01:27:38;;;;;;;13.40;9.25;;;;;;;;;;478564;28;1118;-69
2024/01/17 01:27:54;;;;;;;14.30;9.40;;;;;;;;;;478834;28;1184;-69
2024/01/17 01:28:10;;;;;;;12.80;8.77;;;;;;;;;;478989;28;1249;-69
2024/01/17 01:28:25;;;;;;;12.13;8.57;;;;;;;;;;480688;28;1090;-69
2024/01/17 01:28:40;;;;;;;13.10;8.73;;;;;;;;;;480384;28;1016;-69
2024/01/17 01:28:56;;;;;;;13.57;8.90;;;;;;;;;;479709;28;1186;-69
2024/01/17 01:29:12;;;;;;;13.27;9.25;;;;;;;;;;479911;28;1113;-69
2024/01/17 01:29:27;;;;;;;13.52;9.20;;;;;;;;;;479749;28;1366;-69
2024/01/17 01:29:43;;;;;;;13.30;9.10;;;;;;;;;;479909;28;1170;-69
2024/01/17 01:29:58;;;;;;;12.93;8.90;;;;;;;;;;479282;28;1414;-69
2024/01/17 01:30:14;;;;;;;12.80;9.07;;;;;;;;;;477744;28;1261;-69
2024/01/17 01:30:30;;;;;;;13.65;9.07;;;;;;;;;;478607;28;911;-69
2024/01/17 01:30:46;;;;;;;14.63;9.20;;;;;;;;;;480120;28;1078;-69
2024/01/17 01:31:01;;;;;;;13.77;9.25;;;;;;;;;;479485;28;1207;-70
2024/01/17 01:31:17;;;;;;;15.00;9.13;;;;;;;;;;479834;28;2458;-69
2024/01/17 01:31:32;;;;;;;15.43;9.00;;;;;;;;;;479195;28;921;-69
2024/01/17 01:31:48;;;;;;;14.03;8.90;;;;;;;;;;480459;28;1011;-69
2024/01/17 01:32:03;;;;;;;13.10;8.77;;;;;;;;;;481713;28;1025;-69
2024/01/17 01:32:18;;;;;;;12.97;8.87;;;;;;;;;;481683;28;1114;-69
2024/01/17 01:32:34;;;;;;;14.63;9.18;;;;;;;;;;479952;28;1327;-69
2024/01/17 01:32:49;;;;;;;14.17;9.40;;;;;;;;;;479697;28;1149;-69
2024/01/17 01:33:05;;;;;;;13.07;8.80;;;;;;;;;;479634;28;1006;-69
2024/01/17 01:33:21;;;;;;;12.55;8.48;;;;;;;;;;479507;28;1092;-69
2024/01/17 01:33:36;;;;;;;12.73;8.98;;;;;;;;;;479138;28;1260;-69
2024/01/17 01:33:52;;;;;;;13.75;9.02;;;;;;;;;;479785;28;1039;-69
2024/01/17 01:34:08;;;;;;;14.33;9.30;;;;;;;;;;479294;28;1225;-70
2024/01/17 01:34:23;;;;;;;14.40;9.20;;;;;;;;;;479001;28;1218;-69
2024/01/17 01:34:39;;;;;;;13.93;8.90;;;;;;;;;;480235;28;942;-71
2024/01/17 01:34:54;;;;;;;14.27;9.23;;;;;;;;;;479867;28;1127;-69
2024/01/17 01:35:10;;;;;;;14.02;9.18;;;;;;;;;;478142;28;1332;-69
2024/01/17 01:35:25;;;;;;;13.93;9.30;;;;;;;;;;477510;28;913;-69
2024/01/17 01:35:41;;;;;;;14.07;9.32;;;;;;;;;;478581;28;1071;-69